createdAt,value
2018-11-04T00:01:19.832Z,11.00
2018-11-04T00:03:44.916Z,12.20
2018-11-04T00:06:10.013Z,9.77
2018-11-04T00:08:35.105Z,14.87
2018-11-04T00:11:00.192Z,11.33
2018-11-04T00:13:25.487Z,13.10
2018-11-04T00:21:03.002Z,17.97
2018-11-04T00:23:28.095Z,12.47
2018-11-04T00:25:53.244Z,15.67
2018-11-04T00:28:18.386Z,15.97
2018-11-04T00:30:43.466Z,15.23
2018-11-04T00:33:08.560Z,16.40
2018-11-04T00:35:33.654Z,13.97
2018-11-04T00:37:58.795Z,21.27
2018-11-04T00:40:23.899Z,18.27
2018-11-04T00:42:49.001Z,16.93
2018-11-04T00:45:14.197Z,19.20
2018-11-04T00:47:42.107Z,17.30
2018-11-04T00:50:09.881Z,17.00
2018-11-04T00:52:35.119Z,16.37
2018-11-04T00:55:00.236Z,14.97
2018-11-04T00:57:25.319Z,16.70
2018-11-04T00:59:50.440Z,16.70
2018-11-04T01:02:15.568Z,15.37
2018-11-04T01:04:40.647Z,20.87
2018-11-04T01:07:06.059Z,16.40
2018-11-04T01:09:31.139Z,17.57
2018-11-04T01:11:56.307Z,16.20
2018-11-04T01:14:21.360Z,15.07
2018-11-04T01:16:46.431Z,18.53
2018-11-04T01:19:11.531Z,16.90
2018-11-04T01:24:15.948Z,20.63
2018-11-04T01:26:41.092Z,14.60
2018-11-04T01:29:06.581Z,17.60
2018-11-04T01:31:31.665Z,21.97
2018-11-04T01:33:56.768Z,19.10
2018-11-04T01:36:21.897Z,16.73
2018-11-04T01:38:48.772Z,18.63
2018-11-04T01:41:13.848Z,17.33
2018-11-04T01:43:38.979Z,16.17
2018-11-04T01:46:04.134Z,13.33
2018-11-04T01:48:29.252Z,15.13
2018-11-04T01:50:54.340Z,16.07
2018-11-04T01:53:19.468Z,13.40
2018-11-04T01:55:44.559Z,18.47
2018-11-04T01:58:09.608Z,16.30
2018-11-04T02:00:34.695Z,14.97
2018-11-04T02:02:59.809Z,15.90
2018-11-04T02:05:24.936Z,12.93
2018-11-04T02:07:50.019Z,16.67
2018-11-04T02:10:15.591Z,16.37
2018-11-04T02:12:40.726Z,15.63
2018-11-04T02:15:06.202Z,16.23
2018-11-04T02:17:31.281Z,17.17
2018-11-04T02:19:56.388Z,17.93
2018-11-04T02:22:22.428Z,16.60
2018-11-04T02:24:47.513Z,14.33
2018-11-04T02:27:12.688Z,13.83
2018-11-04T02:29:56.796Z,18.03
2018-11-04T02:32:22.237Z,14.33
2018-11-04T02:34:47.383Z,17.23
2018-11-04T02:37:12.459Z,14.37
2018-11-04T02:39:37.589Z,19.90
2018-11-04T02:42:03.052Z,17.37
2018-11-04T02:44:28.145Z,16.07
2018-11-04T02:46:53.360Z,18.70
2018-11-04T02:49:18.351Z,14.83
2018-11-04T02:51:43.567Z,16.43
2018-11-04T02:54:08.610Z,18.20
2018-11-04T02:56:33.699Z,17.27
2018-11-04T02:58:58.802Z,16.73
2018-11-04T03:03:59.975Z,14.90
2018-11-04T03:06:25.082Z,15.97
2018-11-04T03:08:50.154Z,16.20
2018-11-04T03:11:15.274Z,17.83
2018-11-04T03:13:40.372Z,15.77
2018-11-04T03:16:05.553Z,18.40
2018-11-04T03:18:30.620Z,18.73
2018-11-04T03:20:55.698Z,18.00
2018-11-04T03:23:20.808Z,21.20
2018-11-04T03:25:45.903Z,19.60
2018-11-04T03:28:11.666Z,17.67
2018-11-04T03:30:36.763Z,18.33
2018-11-04T03:33:01.828Z,18.47
2018-11-04T03:35:26.930Z,20.87
2018-11-04T03:37:52.022Z,17.13
2018-11-04T03:40:17.154Z,16.90
2018-11-04T03:42:42.633Z,17.40
2018-11-04T03:45:08.001Z,20.40
2018-11-04T03:47:33.083Z,17.83
2018-11-04T03:50:00.402Z,17.93
2018-11-04T03:52:25.528Z,17.80
2018-11-04T03:54:50.633Z,17.77
2018-11-04T03:57:15.721Z,18.00
2018-11-04T03:59:40.848Z,17.43
2018-11-04T04:02:06.204Z,19.37
2018-11-04T04:04:31.306Z,20.53
2018-11-04T04:06:56.382Z,20.90
2018-11-04T04:09:21.485Z,18.37
2018-11-04T04:11:46.613Z,18.40
2018-11-04T04:14:11.674Z,21.20
2018-11-04T04:16:36.759Z,21.00
2018-11-04T04:21:38.094Z,22.60
2018-11-04T04:24:03.146Z,23.93
2018-11-04T04:26:28.224Z,19.93
2018-11-04T04:31:30.024Z,18.33
2018-11-04T04:33:55.126Z,21.30
2018-11-04T04:36:20.223Z,20.73
2018-11-04T04:38:56.968Z,22.47
2018-11-04T04:41:22.059Z,19.23
2018-11-04T04:43:47.136Z,20.03
2018-11-04T04:46:13.068Z,23.77
2018-11-04T04:51:51.695Z,23.17
2018-11-04T05:06:12.711Z,23.33
2018-11-04T05:08:41.191Z,24.30
2018-11-04T05:11:06.237Z,22.53
2018-11-04T05:13:31.354Z,22.23
2018-11-04T05:15:56.441Z,22.77
2018-11-04T05:18:21.525Z,23.67
2018-11-04T05:20:46.629Z,21.03
2018-11-04T05:23:11.706Z,22.60
2018-11-04T05:28:15.667Z,21.83
2018-11-04T05:30:40.788Z,21.23
2018-11-04T05:33:06.118Z,21.87
2018-11-04T05:35:31.204Z,20.53
2018-11-04T05:37:56.258Z,21.17
2018-11-04T05:40:21.356Z,22.17
2018-11-04T05:42:46.433Z,20.67
2018-11-04T05:45:11.555Z,22.97
2018-11-04T05:47:36.663Z,19.53
2018-11-04T05:50:01.777Z,20.57
2018-11-04T05:52:26.863Z,20.97
2018-11-04T05:55:10.890Z,18.60
2018-11-04T05:57:54.973Z,21.67
2018-11-04T06:00:39.032Z,23.87
2018-11-04T06:03:04.114Z,18.97
2018-11-04T06:05:29.196Z,23.50
2018-11-04T06:07:54.290Z,23.30
2018-11-04T06:10:38.347Z,20.57
2018-11-04T06:13:03.416Z,21.07
2018-11-04T06:15:47.557Z,22.03
2018-11-04T06:18:12.574Z,21.47
2018-11-04T06:20:37.645Z,20.67
2018-11-04T06:23:02.750Z,22.67
2018-11-04T06:25:27.813Z,23.77
2018-11-04T06:28:11.866Z,23.50
2018-11-04T06:30:55.921Z,23.80
2018-11-04T06:33:21.045Z,22.43
2018-11-04T06:35:46.124Z,22.50
2018-11-04T06:38:11.205Z,26.27
2018-11-04T06:40:36.285Z,23.67
2018-11-04T06:43:01.371Z,25.27
2018-11-04T06:45:26.462Z,29.13
2018-11-04T06:47:51.536Z,27.43
2018-11-04T06:50:16.725Z,32.50
2018-11-04T06:52:42.327Z,35.10
2018-11-04T06:55:08.643Z,31.70
2018-11-04T06:57:33.716Z,38.87
2018-11-04T06:59:58.851Z,37.00
2018-11-04T07:02:23.929Z,38.73
2018-11-04T07:04:49.022Z,38.87
2018-11-04T07:07:14.124Z,42.67
2018-11-04T07:09:39.214Z,35.40
2018-11-04T07:12:04.283Z,41.67
2018-11-04T07:14:29.379Z,42.43
2018-11-04T07:16:54.524Z,36.20
2018-11-04T07:19:19.592Z,49.43
2018-11-04T07:21:44.726Z,44.53
2018-11-04T07:24:09.869Z,39.43
2018-11-04T07:26:54.042Z,46.43
2018-11-04T07:29:19.138Z,43.10
2018-11-04T07:31:44.206Z,50.43
2018-11-04T07:34:09.372Z,46.63
2018-11-04T07:36:34.540Z,47.53
2018-11-04T07:38:59.768Z,49.97
2018-11-04T07:41:24.893Z,54.70
2018-11-04T07:43:50.266Z,47.87
2018-11-04T07:46:15.473Z,49.30
2018-11-04T07:48:40.612Z,53.37
2018-11-04T07:51:05.765Z,50.97
2018-11-04T07:53:30.896Z,57.20
2018-11-04T07:55:55.956Z,47.33
2018-11-04T07:58:21.099Z,57.53
2018-11-04T08:00:46.205Z,45.53
2018-11-04T08:03:11.408Z,55.30
2018-11-04T08:05:36.493Z,48.93
2018-11-04T08:08:01.567Z,54.37
2018-11-04T08:10:26.668Z,50.90
2018-11-04T08:12:51.786Z,59.60
2018-11-04T08:15:17.036Z,59.33
2018-11-04T08:17:42.157Z,53.37
2018-11-04T08:20:07.862Z,62.73
2018-11-04T08:22:33.078Z,62.53
2018-11-04T08:25:05.736Z,54.47
2018-11-04T08:27:30.908Z,54.80
2018-11-04T08:29:55.980Z,54.90
2018-11-04T08:32:21.101Z,60.67
2018-11-04T08:34:46.238Z,61.23
2018-11-04T08:37:11.329Z,69.20
2018-11-04T08:39:36.548Z,60.53
2018-11-04T08:42:01.655Z,61.70
2018-11-04T08:44:26.782Z,64.30
2018-11-04T08:46:51.901Z,62.53
2018-11-04T08:49:17.020Z,62.23
2018-11-04T08:51:42.195Z,57.03
2018-11-04T08:54:26.457Z,59.97
2018-11-04T08:56:51.635Z,56.87
2018-11-04T08:59:16.728Z,66.63
2018-11-04T09:01:41.834Z,70.13
2018-11-04T09:06:43.678Z,65.70
2018-11-04T09:09:08.848Z,64.37
2018-11-04T09:11:33.935Z,65.27
2018-11-04T09:13:59.043Z,72.13
2018-11-04T09:16:24.123Z,68.77
2018-11-04T09:18:49.205Z,63.43
2018-11-04T09:21:14.385Z,67.73
2018-11-04T09:23:39.592Z,66.00
2018-11-04T09:26:04.626Z,70.27
2018-11-04T09:28:29.751Z,65.97
2018-11-04T09:30:54.865Z,67.33
2018-11-04T09:33:38.993Z,61.80
2018-11-04T09:36:04.226Z,62.37
2018-11-04T09:38:29.278Z,59.53
2018-11-04T09:40:54.423Z,57.27
2018-11-04T09:43:19.550Z,59.70
2018-11-04T09:45:44.654Z,60.97
2018-11-04T09:48:09.794Z,61.63
2018-11-04T09:50:53.979Z,53.87
2018-11-04T09:53:22.487Z,58.07
2018-11-04T09:55:48.285Z,63.60
2018-11-04T09:58:13.515Z,61.23
2018-11-04T10:03:26.918Z,60.67
2018-11-04T10:05:52.033Z,67.00
2018-11-04T10:08:17.210Z,61.30
2018-11-04T10:10:46.209Z,70.87
2018-11-04T10:13:11.825Z,64.57
2018-11-04T10:15:56.698Z,66.00
2018-11-04T10:18:21.840Z,64.40
2018-11-04T10:20:47.596Z,66.50
2018-11-04T10:28:27.914Z,66.80
2018-11-04T10:30:53.214Z,72.30
2018-11-04T10:33:18.449Z,62.70
2018-11-04T10:35:44.716Z,66.33
2018-11-04T10:38:10.819Z,65.30
2018-11-04T10:40:36.430Z,66.40
2018-11-04T10:43:01.669Z,63.77
2018-11-04T10:45:26.880Z,64.73
2018-11-04T10:47:53.914Z,60.23
2018-11-04T10:50:22.015Z,58.50
2018-11-04T10:52:47.191Z,62.60
2018-11-04T10:55:12.470Z,67.83
2018-11-04T10:57:37.630Z,63.87
2018-11-04T11:00:02.854Z,64.47
2018-11-04T11:02:27.972Z,63.70
2018-11-04T11:04:53.082Z,64.73
2018-11-04T11:07:18.269Z,56.27
2018-11-04T11:09:43.337Z,60.60
2018-11-04T11:12:08.545Z,65.13
2018-11-04T11:14:33.831Z,55.10
2018-11-04T11:16:59.016Z,57.30
2018-11-04T11:19:24.263Z,60.10
2018-11-04T11:21:49.357Z,58.10
2018-11-04T11:24:14.602Z,55.23
2018-11-04T11:26:39.784Z,56.90
2018-11-04T11:29:04.950Z,53.90
2018-11-04T11:31:30.096Z,59.37
2018-11-04T11:33:55.346Z,53.37
2018-11-04T11:36:20.600Z,52.00
2018-11-04T11:38:45.796Z,51.73
2018-11-04T11:41:11.132Z,52.57
2018-11-04T11:43:36.338Z,46.93
2018-11-04T11:48:59.893Z,49.33
2018-11-04T11:51:25.022Z,51.47
2018-11-04T11:53:50.270Z,50.23
2018-11-04T11:56:15.439Z,51.47
2018-11-04T11:58:40.522Z,47.10
2018-11-04T12:01:05.763Z,47.53
2018-11-04T12:03:30.861Z,48.20
2018-11-04T12:05:55.981Z,46.00
2018-11-04T12:08:21.137Z,47.90
2018-11-04T12:10:46.238Z,44.80
2018-11-04T12:13:11.434Z,48.87
2018-11-04T12:15:36.565Z,45.90
2018-11-04T12:18:01.714Z,48.30
2018-11-04T12:20:45.803Z,44.67
2018-11-04T12:23:10.982Z,44.83
2018-11-04T12:25:36.232Z,46.57
2018-11-04T12:28:01.378Z,47.33
2018-11-04T12:30:26.508Z,43.80
2018-11-04T12:32:51.767Z,47.60
2018-11-04T12:35:17.304Z,45.37
2018-11-04T12:37:42.930Z,44.30
2018-11-04T12:40:10.415Z,44.60
2018-11-04T12:42:35.569Z,45.00
2018-11-04T12:45:00.715Z,39.93
2018-11-04T12:47:25.949Z,41.13
2018-11-04T12:50:10.153Z,42.80
2018-11-04T12:52:35.260Z,42.53
2018-11-04T12:55:00.422Z,42.20
2018-11-04T12:57:25.628Z,45.20
2018-11-04T12:59:50.758Z,42.80
2018-11-04T13:02:15.903Z,47.67
2018-11-04T13:07:36.324Z,50.63
2018-11-04T13:10:01.486Z,44.37
2018-11-04T13:12:26.541Z,43.83
2018-11-04T13:14:51.731Z,44.47
2018-11-04T13:17:16.953Z,49.70
2018-11-04T13:19:42.151Z,48.43
2018-11-04T13:22:07.301Z,49.50
2018-11-04T13:24:32.537Z,44.67
2018-11-04T13:26:57.866Z,46.33
2018-11-04T13:29:22.862Z,44.43
2018-11-04T13:31:48.077Z,47.73
2018-11-04T13:34:17.146Z,43.03
2018-11-04T13:36:42.338Z,47.50
2018-11-04T13:39:09.101Z,46.20
2018-11-04T13:41:34.211Z,48.50
2018-11-04T13:43:59.392Z,44.50
2018-11-04T13:46:24.544Z,53.27
2018-11-04T13:48:49.653Z,45.63
2018-11-04T13:51:14.842Z,55.20
2018-11-04T13:53:39.998Z,51.80
2018-11-04T13:56:05.127Z,51.93
2018-11-04T13:58:30.309Z,48.93
2018-11-04T14:00:55.577Z,47.87
2018-11-04T14:03:20.719Z,49.67
2018-11-04T14:05:45.920Z,52.20
2018-11-04T14:08:11.283Z,52.23
2018-11-04T14:10:40.641Z,50.60
2018-11-04T14:13:23.297Z,50.67
2018-11-04T14:19:11.388Z,56.10
2018-11-04T14:21:44.205Z,57.87
2018-11-04T14:45:04.427Z,56.20
2018-11-04T14:47:29.986Z,59.10
2018-11-04T14:49:59.298Z,55.77
2018-11-04T14:52:24.607Z,58.07
2018-11-04T14:54:49.824Z,63.73
2018-11-04T14:57:14.998Z,59.47
2018-11-04T14:59:40.180Z,58.03
2018-11-04T15:02:05.406Z,59.60
2018-11-04T15:04:30.647Z,59.50
2018-11-04T15:06:55.840Z,57.67
2018-11-04T15:09:21.382Z,63.13
2018-11-04T15:11:46.962Z,57.47
2018-11-04T15:14:12.780Z,64.93
2018-11-04T15:16:38.008Z,62.70
2018-11-04T15:19:03.280Z,61.73
2018-11-04T15:21:28.422Z,62.80
2018-11-04T15:23:53.672Z,69.27
2018-11-04T15:26:21.399Z,62.10
2018-11-04T15:28:46.709Z,64.57
2018-11-04T15:31:11.953Z,64.43
2018-11-04T15:33:37.254Z,68.87
2018-11-04T15:39:15.644Z,67.43
2018-11-04T15:41:40.787Z,62.07
2018-11-04T15:44:05.912Z,66.97
2018-11-04T15:46:32.244Z,66.57
2018-11-04T15:48:57.548Z,67.57
2018-11-04T15:51:22.669Z,68.23
2018-11-04T15:53:47.884Z,69.43
2018-11-04T15:56:13.004Z,73.23
2018-11-04T15:58:38.133Z,73.00
2018-11-04T16:01:03.364Z,79.83
2018-11-04T16:03:28.572Z,72.80
2018-11-04T16:06:12.680Z,68.27
2018-11-04T16:08:37.834Z,70.07
2018-11-04T16:11:02.983Z,70.83
2018-11-04T16:13:28.173Z,69.37
2018-11-04T16:15:53.348Z,73.20
2018-11-04T16:18:18.672Z,75.50
2018-11-04T16:20:43.785Z,66.73
2018-11-04T16:23:08.925Z,72.60
2018-11-04T16:25:34.236Z,72.40
2018-11-04T16:27:59.349Z,72.77
2018-11-04T16:30:43.397Z,73.97
2018-11-04T16:33:08.620Z,80.80
2018-11-04T16:35:33.816Z,68.57
2018-11-04T16:37:59.117Z,75.60
2018-11-04T16:40:24.179Z,84.93
2018-11-04T16:42:49.331Z,82.20
2018-11-04T16:45:15.925Z,87.67
2018-11-04T16:47:41.095Z,86.60
2018-11-04T16:50:18.153Z,81.20
2018-11-04T16:52:44.238Z,85.90
2018-11-04T16:55:10.388Z,78.80
2018-11-04T16:57:35.518Z,75.03
2018-11-04T17:02:37.274Z,78.80
2018-11-04T17:05:02.927Z,91.50
2018-11-04T17:07:28.019Z,88.03
2018-11-04T17:09:53.219Z,73.87
2018-11-04T17:15:00.682Z,90.33
2018-11-04T17:20:05.588Z,87.40
2018-11-04T17:22:30.862Z,81.00
2018-11-04T17:27:51.580Z,92.87
2018-11-04T17:32:55.754Z,89.67
2018-11-04T17:35:20.960Z,84.60
2018-11-04T17:37:46.588Z,78.97
2018-11-04T17:40:12.653Z,89.93
2018-11-04T17:42:43.806Z,74.00
2018-11-04T17:45:10.767Z,88.20
2018-11-04T17:47:36.045Z,85.03
2018-11-04T17:50:01.317Z,93.23
2018-11-04T17:52:26.538Z,88.33
2018-11-04T17:54:51.703Z,80.80
2018-11-04T17:57:18.632Z,84.87
2018-11-04T17:59:42.569Z,91.60
2018-11-04T18:04:44.797Z,82.40
2018-11-04T18:07:10.774Z,83.90
2018-11-04T18:09:36.013Z,81.93
2018-11-04T18:12:02.047Z,80.10
2018-11-04T18:14:29.063Z,87.30
2018-11-04T18:16:57.618Z,90.10
2018-11-04T18:22:30.919Z,80.20
2018-11-04T18:24:56.053Z,86.03
2018-11-04T18:27:21.302Z,86.03
2018-11-04T18:29:46.461Z,82.03
2018-11-04T18:32:11.649Z,92.80
2018-11-04T18:34:36.795Z,85.93
2018-11-04T18:37:01.968Z,92.93
2018-11-04T18:39:27.117Z,84.47
2018-11-04T18:41:52.265Z,92.93
2018-11-04T18:44:17.529Z,85.67
2018-11-04T18:46:42.658Z,90.73
2018-11-04T18:49:07.881Z,91.40
2018-11-04T18:51:33.084Z,81.63
2018-11-04T18:56:56.127Z,84.70
2018-11-04T18:59:21.476Z,93.47
2018-11-04T19:01:46.491Z,92.67
2018-11-04T19:04:11.601Z,83.00
2018-11-04T19:06:36.761Z,93.83
2018-11-04T19:09:01.896Z,87.83
2018-11-04T19:11:27.087Z,82.00
2018-11-04T19:13:52.328Z,87.33
2018-11-04T19:16:17.501Z,92.37
2018-11-04T19:18:43.326Z,84.50
2018-11-04T19:21:08.399Z,90.10
2018-11-04T19:23:52.557Z,86.87
2018-11-04T19:26:17.704Z,86.90
2018-11-04T19:28:42.899Z,78.53
2018-11-04T19:31:08.173Z,83.90
2018-11-04T19:33:33.223Z,84.43
2018-11-04T19:36:17.346Z,90.63
2018-11-04T19:38:42.472Z,80.03
2018-11-04T19:41:26.594Z,85.00
2018-11-04T19:43:51.856Z,83.60
2018-11-04T19:46:17.021Z,77.20
2018-11-04T19:48:42.358Z,78.70
2018-11-04T19:51:07.465Z,79.07
2018-11-04T19:53:32.619Z,82.57
2018-11-04T19:55:57.712Z,79.50
2018-11-04T19:58:22.887Z,82.93
2018-11-04T20:00:48.028Z,79.03
2018-11-04T20:03:13.146Z,75.93
2018-11-04T20:05:38.277Z,74.57
2018-11-04T20:08:03.405Z,78.87
2018-11-04T20:10:28.623Z,73.63
2018-11-04T20:13:12.388Z,80.77
2018-11-04T20:15:56.490Z,75.00
2018-11-04T20:18:40.288Z,78.20
2018-11-04T20:21:05.467Z,69.70
2018-11-04T20:23:30.578Z,72.90
2018-11-04T20:26:14.400Z,73.90
2018-11-04T20:28:39.580Z,83.03
2018-11-04T20:31:05.926Z,76.13
2018-11-04T20:33:29.853Z,71.07
2018-11-04T20:36:13.978Z,76.47
2018-11-04T20:38:57.887Z,75.63
2018-11-04T20:41:41.677Z,67.57
2018-11-04T20:44:06.893Z,70.80
2018-11-04T20:46:32.104Z,77.13
2018-11-04T20:49:17.894Z,71.87
2018-11-04T20:51:43.110Z,84.87
2018-11-04T20:54:08.331Z,70.83
2018-11-04T20:56:52.195Z,74.00
2018-11-04T20:59:17.323Z,67.53
2018-11-04T21:01:42.473Z,72.63
2018-11-04T21:04:07.917Z,73.60
2018-11-04T21:06:33.062Z,69.07
2018-11-04T21:08:58.196Z,73.67
2018-11-04T21:11:23.393Z,73.20
2018-11-04T21:13:48.568Z,76.00
2018-11-04T21:16:13.873Z,75.57
2018-11-04T21:18:38.843Z,76.70
2018-11-04T21:21:03.982Z,74.60
2018-11-04T21:23:29.171Z,73.60
2018-11-04T21:25:54.327Z,68.70
2018-11-04T21:28:21.253Z,76.00
2018-11-04T21:30:46.358Z,74.10
2018-11-04T21:33:11.471Z,80.47
2018-11-04T21:35:36.607Z,77.63
2018-11-04T21:38:01.923Z,76.57
2018-11-04T21:40:26.874Z,77.77
2018-11-04T21:42:52.235Z,75.50
2018-11-04T21:45:17.189Z,75.83
2018-11-04T21:47:42.625Z,76.90
2018-11-04T21:50:27.022Z,79.17
2018-11-04T21:53:03.905Z,79.20
2018-11-04T21:55:29.230Z,77.73
2018-11-04T21:57:54.168Z,74.03
2018-11-04T22:00:19.320Z,77.00
2018-11-04T22:02:44.554Z,79.63
2018-11-04T22:05:10.306Z,80.90
2018-11-04T22:07:35.472Z,82.70
2018-11-04T22:10:00.623Z,82.43
2018-11-04T22:12:25.740Z,79.53
2018-11-04T22:14:50.875Z,78.13
2018-11-04T22:17:15.976Z,82.33
2018-11-04T22:19:41.185Z,76.73
2018-11-04T22:22:18.111Z,80.37
2018-11-04T22:24:43.294Z,77.93
2018-11-04T22:27:08.384Z,81.97
2018-11-04T22:29:33.444Z,80.30
2018-11-04T22:31:58.561Z,81.43
2018-11-04T22:34:23.637Z,75.10
2018-11-04T22:36:48.761Z,78.67
2018-11-04T22:39:13.874Z,82.30
2018-11-04T22:41:38.976Z,71.13
2018-11-04T22:44:04.068Z,84.53
2018-11-04T22:49:25.063Z,78.90
2018-11-04T22:51:51.050Z,82.23
2018-11-04T22:54:16.233Z,80.70
2018-11-04T22:56:41.430Z,87.57
2018-11-04T22:59:06.844Z,90.77
2018-11-04T23:01:32.110Z,89.23
2018-11-04T23:03:57.425Z,89.93
2018-11-04T23:06:22.425Z,85.67
2018-11-04T23:08:47.655Z,98.03
2018-11-04T23:11:12.805Z,93.77
2018-11-04T23:13:57.241Z,102.43
2018-11-04T23:16:22.656Z,88.93
2018-11-04T23:21:43.199Z,93.87
2018-11-04T23:24:08.552Z,88.47
2018-11-04T23:26:33.653Z,103.67
2018-11-04T23:28:58.786Z,96.30
2018-11-04T23:31:23.903Z,105.40
2018-11-04T23:33:49.049Z,102.93
2018-11-04T23:36:14.193Z,101.33
2018-11-04T23:38:39.293Z,97.60
2018-11-04T23:41:04.405Z,95.97
2018-11-04T23:43:29.555Z,95.43
2018-11-04T23:45:54.721Z,109.43
2018-11-04T23:48:19.815Z,104.33
2018-11-04T23:50:44.917Z,95.93
2018-11-04T23:53:10.077Z,101.77
2018-11-04T23:55:35.207Z,100.63
2018-11-04T23:58:00.334Z,110.00
